sensor_id;sensor_type;location;lat;lon;timestamp;pressure;altitude;pressure_sealevel;temperature;humidity
11856;BME280;5987;53.140;8.904;2023-01-09T00:01:29;99511.09;;;4.44;100.00
11856;BME280;5987;53.140;8.904;2023-01-09T00:04:33;99509.25;;;4.48;100.00
11856;BME280;5987;53.140;8.904;2023-01-09T00:07:37;99507.34;;;4.53;100.00
11856;BME280;5987;53.140;8.904;2023-01-09T00:10:41;99501.94;;;4.59;100.00
11856;BME280;5987;53.140;8.904;2023-01-09T00:13:45;99500.94;;;4.63;100.00
11856;BME280;5987;53.140;8.904;2023-01-09T00:16:54;99501.69;;;4.67;100.00
11856;BME280;5987;53.140;8.904;2023-01-09T00:19:57;99491.41;;;4.62;100.00
11856;BME280;5987;53.140;8.904;2023-01-09T00:23:01;99484.44;;;4.64;100.00
11856;BME280;5987;53.140;8.904;2023-01-09T00:26:09;99482.63;;;4.67;100.00
11856;BME280;5987;53.140;8.904;2023-01-09T00:29:13;99482.78;;;4.62;100.00
11856;BME280;5987;53.140;8.904;2023-01-09T00:32:18;99471.59;;;4.60;100.00
11856;BME280;5987;53.140;8.904;2023-01-09T00:35:24;99465.59;;;4.58;100.00
11856;BME280;5987;53.140;8.904;2023-01-09T00:38:30;99465.69;;;4.55;100.00
11856;BME280;5987;53.140;8.904;2023-01-09T00:41:38;99457.69;;;4.61;100.00
11856;BME280;5987;53.140;8.904;2023-01-09T00:44:47;99459.44;;;4.60;100.00
11856;BME280;5987;53.140;8.904;2023-01-09T00:48:08;99454.19;;;4.62;100.00
11856;BME280;5987;53.140;8.904;2023-01-09T00:51:17;99455.94;;;4.61;100.00
11856;BME280;5987;53.140;8.904;2023-01-09T00:54:22;99448.28;;;4.57;100.00
11856;BME280;5987;53.140;8.904;2023-01-09T00:57:26;99451.94;;;4.51;100.00
11856;BME280;5987;53.140;8.904;2023-01-09T01:00:30;99454.41;;;4.56;100.00
11856;BME280;5987;53.140;8.904;2023-01-09T01:03:36;99454.31;;;4.59;100.00
11856;BME280;5987;53.140;8.904;2023-01-09T01:06:39;99449.09;;;4.59;100.00
11856;BME280;5987;53.140;8.904;2023-01-09T01:10:01;99446.34;;;4.63;100.00
11856;BME280;5987;53.140;8.904;2023-01-09T01:13:06;99439.13;;;4.72;100.00
11856;BME280;5987;53.140;8.904;2023-01-09T01:16:12;99442.41;;;4.77;100.00
11856;BME280;5987;53.140;8.904;2023-01-09T01:19:17;99440.38;;;4.85;100.00
11856;BME280;5987;53.140;8.904;2023-01-09T01:22:21;99441.13;;;4.89;100.00
11856;BME280;5987;53.140;8.904;2023-01-09T01:25:25;99427.72;;;5.00;100.00
11856;BME280;5987;53.140;8.904;2023-01-09T01:28:29;99434.72;;;4.97;100.00
11856;BME280;5987;53.140;8.904;2023-01-09T01:31:33;99436.66;;;5.16;100.00
11856;BME280;5987;53.140;8.904;2023-01-09T01:34:38;99433.53;;;5.06;100.00
11856;BME280;5987;53.140;8.904;2023-01-09T01:37:42;99429.72;;;5.17;100.00
11856;BME280;5987;53.140;8.904;2023-01-09T01:40:52;99432.88;;;5.25;100.00
11856;BME280;5987;53.140;8.904;2023-01-09T01:43:59;99428.38;;;5.28;100.00
11856;BME280;5987;53.140;8.904;2023-01-09T01:47:03;99435.09;;;5.34;100.00
11856;BME280;5987;53.140;8.904;2023-01-09T01:50:16;99439.28;;;5.38;100.00
11856;BME280;5987;53.140;8.904;2023-01-09T01:53:26;99437.56;;;5.39;100.00
11856;BME280;5987;53.140;8.904;2023-01-09T01:56:36;99452.72;;;5.27;100.00
11856;BME280;5987;53.140;8.904;2023-01-09T01:59:47;99457.81;;;5.30;100.00
11856;BME280;5987;53.140;8.904;2023-01-09T02:02:53;99468.69;;;5.18;100.00
11856;BME280;5987;53.140;8.904;2023-01-09T02:05:58;99463.47;;;5.18;100.00
11856;BME280;5987;53.140;8.904;2023-01-09T02:09:05;99460.19;;;5.13;100.00
11856;BME280;5987;53.140;8.904;2023-01-09T02:12:18;99457.69;;;5.10;100.00
11856;BME280;5987;53.140;8.904;2023-01-09T02:15:26;99457.81;;;5.07;100.00
11856;BME280;5987;53.140;8.904;2023-01-09T02:18:47;99459.41;;;5.11;100.00
11856;BME280;5987;53.140;8.904;2023-01-09T02:22:07;99453.19;;;5.15;100.00
11856;BME280;5987;53.140;8.904;2023-01-09T02:25:47;99453.50;;;5.06;100.00
11856;BME280;5987;53.140;8.904;2023-01-09T02:33:12;99441.19;;;5.11;100.00
11856;BME280;5987;53.140;8.904;2023-01-09T02:36:30;99433.50;;;5.08;100.00
11856;BME280;5987;53.140;8.904;2023-01-09T02:39:46;99433.25;;;5.14;100.00
11856;BME280;5987;53.140;8.904;2023-01-09T02:42:56;99430.72;;;5.12;100.00
11856;BME280;5987;53.140;8.904;2023-01-09T02:46:01;99427.16;;;5.15;100.00
11856;BME280;5987;53.140;8.904;2023-01-09T02:49:07;99423.63;;;5.16;100.00
11856;BME280;5987;53.140;8.904;2023-01-09T02:52:28;99417.78;;;5.11;100.00
11856;BME280;5987;53.140;8.904;2023-01-09T02:55:57;99419.50;;;5.10;100.00
11856;BME280;5987;53.140;8.904;2023-01-09T02:59:20;99423.75;;;5.13;100.00
11856;BME280;5987;53.140;8.904;2023-01-09T03:02:47;99426.34;;;5.13;100.00
11856;BME280;5987;53.140;8.904;2023-01-09T03:06:00;99420.31;;;5.12;100.00
11856;BME280;5987;53.140;8.904;2023-01-09T03:09:15;99436.81;;;5.11;100.00
11856;BME280;5987;53.140;8.904;2023-01-09T03:12:23;99427.28;;;5.12;100.00
11856;BME280;5987;53.140;8.904;2023-01-09T03:15:34;99429.81;;;5.13;100.00
11856;BME280;5987;53.140;8.904;2023-01-09T03:18:41;99437.22;;;5.24;100.00
11856;BME280;5987;53.140;8.904;2023-01-09T03:21:49;99428.38;;;5.28;100.00
11856;BME280;5987;53.140;8.904;2023-01-09T03:24:53;99421.44;;;5.29;100.00
11856;BME280;5987;53.140;8.904;2023-01-09T03:28:00;99423.19;;;5.28;100.00
11856;BME280;5987;53.140;8.904;2023-01-09T03:31:04;99417.84;;;5.31;100.00
11856;BME280;5987;53.140;8.904;2023-01-09T03:34:08;99423.19;;;5.28;100.00
11856;BME280;5987;53.140;8.904;2023-01-09T03:37:13;99425.78;;;5.28;100.00
11856;BME280;5987;53.140;8.904;2023-01-09T03:40:18;99425.84;;;5.27;100.00
11856;BME280;5987;53.140;8.904;2023-01-09T03:43:22;99423.31;;;5.25;100.00
11856;BME280;5987;53.140;8.904;2023-01-09T03:46:25;99412.13;;;5.23;100.00
11856;BME280;5987;53.140;8.904;2023-01-09T03:49:29;99414.47;;;5.29;100.00
11856;BME280;5987;53.140;8.904;2023-01-09T03:52:34;99418.94;;;5.26;100.00
11856;BME280;5987;53.140;8.904;2023-01-09T03:55:38;99413.00;;;5.22;100.00
11856;BME280;5987;53.140;8.904;2023-01-09T03:58:42;99413.72;;;5.26;100.00
11856;BME280;5987;53.140;8.904;2023-01-09T04:01:46;99412.91;;;5.25;100.00
11856;BME280;5987;53.140;8.904;2023-01-09T04:04:50;99411.88;;;5.29;100.00
11856;BME280;5987;53.140;8.904;2023-01-09T04:07:55;99412.78;;;5.28;100.00
11856;BME280;5987;53.140;8.904;2023-01-09T04:10:59;99404.84;;;5.31;100.00
11856;BME280;5987;53.140;8.904;2023-01-09T04:14:03;99407.44;;;5.31;100.00
11856;BME280;5987;53.140;8.904;2023-01-09T04:17:07;99405.72;;;5.32;100.00
11856;BME280;5987;53.140;8.904;2023-01-09T04:20:12;99408.31;;;5.32;100.00
11856;BME280;5987;53.140;8.904;2023-01-09T04:23:17;99397.97;;;5.30;100.00
11856;BME280;5987;53.140;8.904;2023-01-09T04:26:21;99403.03;;;5.33;100.00
11856;BME280;5987;53.140;8.904;2023-01-09T04:29:25;99396.94;;;5.35;100.00
11856;BME280;5987;53.140;8.904;2023-01-09T04:32:29;99402.91;;;5.37;100.00
11856;BME280;5987;53.140;8.904;2023-01-09T04:35:33;99392.44;;;5.38;100.00
11856;BME280;5987;53.140;8.904;2023-01-09T04:38:38;99394.28;;;5.36;100.00
11856;BME280;5987;53.140;8.904;2023-01-09T04:41:42;99397.59;;;5.40;100.00
11856;BME280;5987;53.140;8.904;2023-01-09T04:44:52;99410.84;;;5.33;100.00
11856;BME280;5987;53.140;8.904;2023-01-09T04:47:55;99417.81;;;5.33;100.00
11856;BME280;5987;53.140;8.904;2023-01-09T04:50:59;99410.97;;;5.30;100.00
11856;BME280;5987;53.140;8.904;2023-01-09T04:54:05;99423.06;;;5.31;100.00
11856;BME280;5987;53.140;8.904;2023-01-09T04:57:09;99421.38;;;5.30;100.00
11856;BME280;5987;53.140;8.904;2023-01-09T05:00:14;99423.97;;;5.30;100.00
11856;BME280;5987;53.140;8.904;2023-01-09T05:03:18;99424.94;;;5.28;100.00
11856;BME280;5987;53.140;8.904;2023-01-09T05:06:22;99433.66;;;5.27;100.00
11856;BME280;5987;53.140;8.904;2023-01-09T05:09:28;99437.13;;;5.27;100.00
11856;BME280;5987;53.140;8.904;2023-01-09T05:12:32;99438.72;;;5.30;100.00
11856;BME280;5987;53.140;8.904;2023-01-09T05:15:37;99445.69;;;5.29;100.00
11856;BME280;5987;53.140;8.904;2023-01-09T05:18:41;99442.19;;;5.30;100.00
11856;BME280;5987;53.140;8.904;2023-01-09T05:21:45;99455.28;;;5.29;100.00
11856;BME280;5987;53.140;8.904;2023-01-09T05:24:50;99457.88;;;5.29;100.00
11856;BME280;5987;53.140;8.904;2023-01-09T05:27:54;99451.75;;;5.30;100.00
11856;BME280;5987;53.140;8.904;2023-01-09T05:30:58;99450.00;;;5.30;100.00
11856;BME280;5987;53.140;8.904;2023-01-09T05:34:01;99459.50;;;5.31;100.00
11856;BME280;5987;53.140;8.904;2023-01-09T05:37:05;99465.56;;;5.32;100.00
11856;BME280;5987;53.140;8.904;2023-01-09T05:40:12;99466.41;;;5.32;100.00
11856;BME280;5987;53.140;8.904;2023-01-09T05:43:16;99458.59;;;5.32;100.00
11856;BME280;5987;53.140;8.904;2023-01-09T05:46:20;99461.38;;;5.28;100.00
11856;BME280;5987;53.140;8.904;2023-01-09T05:49:24;99457.44;;;5.18;100.00
11856;BME280;5987;53.140;8.904;2023-01-09T05:52:28;99477.56;;;5.12;100.00
11856;BME280;5987;53.140;8.904;2023-01-09T05:55:34;99480.34;;;5.08;100.00
11856;BME280;5987;53.140;8.904;2023-01-09T05:58:38;99481.44;;;5.01;100.00
11856;BME280;5987;53.140;8.904;2023-01-09T06:01:42;99485.06;;;4.96;100.00
11856;BME280;5987;53.140;8.904;2023-01-09T06:04:46;99480.88;;;4.92;100.00
11856;BME280;5987;53.140;8.904;2023-01-09T06:07:51;99481.03;;;4.88;100.00
11856;BME280;5987;53.140;8.904;2023-01-09T06:10:56;99489.00;;;4.83;100.00
11856;BME280;5987;53.140;8.904;2023-01-09T06:14:01;99489.22;;;4.77;100.00
11856;BME280;5987;53.140;8.904;2023-01-09T06:17:05;99494.50;;;4.74;100.00
11856;BME280;5987;53.140;8.904;2023-01-09T06:20:10;99504.13;;;4.72;100.00
11856;BME280;5987;53.140;8.904;2023-01-09T06:23:14;99512.22;;;4.62;100.00
11856;BME280;5987;53.140;8.904;2023-01-09T06:26:19;99516.63;;;4.60;100.00
11856;BME280;5987;53.140;8.904;2023-01-09T06:29:23;99525.50;;;4.55;100.00
11856;BME280;5987;53.140;8.904;2023-01-09T06:32:27;99517.84;;;4.50;100.00
11856;BME280;5987;53.140;8.904;2023-01-09T06:35:31;99527.66;;;4.42;100.00
11856;BME280;5987;53.140;8.904;2023-01-09T06:38:35;99521.72;;;4.37;100.00
11856;BME280;5987;53.140;8.904;2023-01-09T06:41:40;99528.88;;;4.30;100.00
11856;BME280;5987;53.140;8.904;2023-01-09T06:44:45;99529.13;;;4.22;100.00
11856;BME280;5987;53.140;8.904;2023-01-09T06:47:48;99540.41;;;4.21;100.00
11856;BME280;5987;53.140;8.904;2023-01-09T06:50:53;99544.94;;;4.15;100.00
11856;BME280;5987;53.140;8.904;2023-01-09T06:53:58;99542.44;;;4.11;100.00
11856;BME280;5987;53.140;8.904;2023-01-09T06:57:03;99554.59;;;4.11;100.00
11856;BME280;5987;53.140;8.904;2023-01-09T07:00:08;99552.00;;;4.11;100.00
11856;BME280;5987;53.140;8.904;2023-01-09T07:03:12;99553.00;;;4.07;100.00
11856;BME280;5987;53.140;8.904;2023-01-09T07:06:21;99555.69;;;4.04;100.00
11856;BME280;5987;53.140;8.904;2023-01-09T07:09:24;99553.25;;;3.98;100.00
11856;BME280;5987;53.140;8.904;2023-01-09T07:12:30;99562.03;;;3.93;100.00
11856;BME280;5987;53.140;8.904;2023-01-09T07:15:34;99568.06;;;3.95;100.00
11856;BME280;5987;53.140;8.904;2023-01-09T07:18:39;99563.91;;;3.90;100.00
11856;BME280;5987;53.140;8.904;2023-01-09T07:21:43;99560.47;;;3.88;100.00
11856;BME280;5987;53.140;8.904;2023-01-09T07:24:48;99576.16;;;3.85;100.00
11856;BME280;5987;53.140;8.904;2023-01-09T07:27:53;99572.88;;;3.78;100.00
11856;BME280;5987;53.140;8.904;2023-01-09T07:30:58;99580.75;;;3.75;100.00
11856;BME280;5987;53.140;8.904;2023-01-09T07:34:04;99585.69;;;3.84;100.00
11856;BME280;5987;53.140;8.904;2023-01-09T07:37:07;99594.47;;;3.80;100.00
11856;BME280;5987;53.140;8.904;2023-01-09T07:40:12;99596.44;;;3.72;100.00
11856;BME280;5987;53.140;8.904;2023-01-09T07:43:17;99605.97;;;3.71;100.00
11856;BME280;5987;53.140;8.904;2023-01-09T07:46:21;99601.81;;;3.66;100.00
11856;BME280;5987;53.140;8.904;2023-01-09T07:49:25;99607.00;;;3.66;100.00
11856;BME280;5987;53.140;8.904;2023-01-09T07:52:29;99612.19;;;3.66;100.00
11856;BME280;5987;53.140;8.904;2023-01-09T07:55:33;99626.06;;;3.65;100.00
11856;BME280;5987;53.140;8.904;2023-01-09T07:58:38;99630.53;;;3.89;100.00
11856;BME280;5987;53.140;8.904;2023-01-09T08:01:43;99634.78;;;3.92;100.00
11856;BME280;5987;53.140;8.904;2023-01-09T08:04:47;99635.13;;;4.11;100.00
11856;BME280;5987;53.140;8.904;2023-01-09T08:07:51;99656.97;;;4.04;100.00
11856;BME280;5987;53.140;8.904;2023-01-09T08:10:55;99657.69;;;4.09;100.00
11856;BME280;5987;53.140;8.904;2023-01-09T08:14:00;99653.22;;;4.14;100.00
11856;BME280;5987;53.140;8.904;2023-01-09T08:17:04;99653.06;;;4.19;100.00
11856;BME280;5987;53.140;8.904;2023-01-09T08:20:12;99653.84;;;4.22;100.00
11856;BME280;5987;53.140;8.904;2023-01-09T08:23:16;99654.50;;;4.29;100.00
11856;BME280;5987;53.140;8.904;2023-01-09T08:26:21;99660.44;;;4.33;100.00
11856;BME280;5987;53.140;8.904;2023-01-09T08:29:26;99660.34;;;4.36;100.00
11856;BME280;5987;53.140;8.904;2023-01-09T08:32:30;99672.25;;;4.43;100.00
11856;BME280;5987;53.140;8.904;2023-01-09T08:35:35;99667.94;;;4.43;100.00
11856;BME280;5987;53.140;8.904;2023-01-09T08:38:40;99672.09;;;4.49;100.00
11856;BME280;5987;53.140;8.904;2023-01-09T08:41:44;99668.59;;;4.50;100.00
11856;BME280;5987;53.140;8.904;2023-01-09T08:45:09;99664.13;;;4.54;100.00
11856;BME280;5987;53.140;8.904;2023-01-09T08:48:32;99666.59;;;4.58;100.00
11856;BME280;5987;53.140;8.904;2023-01-09T08:51:35;99669.16;;;4.60;100.00
11856;BME280;5987;53.140;8.904;2023-01-09T08:54:40;99671.63;;;4.64;100.00
11856;BME280;5987;53.140;8.904;2023-01-09T08:57:47;99671.50;;;4.68;100.00
11856;BME280;5987;53.140;8.904;2023-01-09T09:00:52;99674.91;;;4.70;100.00
11856;BME280;5987;53.140;8.904;2023-01-09T09:03:56;99674.78;;;4.74;100.00
11856;BME280;5987;53.140;8.904;2023-01-09T09:07:00;99673.97;;;4.72;100.00
11856;BME280;5987;53.140;8.904;2023-01-09T09:10:04;99679.94;;;4.76;100.00
11856;BME280;5987;53.140;8.904;2023-01-09T09:13:08;99681.63;;;4.77;100.00
11856;BME280;5987;53.140;8.904;2023-01-09T09:16:13;99674.53;;;4.82;100.00
11856;BME280;5987;53.140;8.904;2023-01-09T09:19:17;99671.75;;;4.88;100.00
11856;BME280;5987;53.140;8.904;2023-01-09T09:22:21;99681.31;;;4.86;100.00
11856;BME280;5987;53.140;8.904;2023-01-09T09:25:26;99676.22;;;4.83;100.00
11856;BME280;5987;53.140;8.904;2023-01-09T09:28:31;99673.78;;;4.78;100.00
11856;BME280;5987;53.140;8.904;2023-01-09T09:31:37;99681.44;;;4.83;100.00
11856;BME280;5987;53.140;8.904;2023-01-09T09:34:41;99694.00;;;4.97;100.00
11856;BME280;5987;53.140;8.904;2023-01-09T09:37:53;99681.59;;;5.05;100.00
11856;BME280;5987;53.140;8.904;2023-01-09T09:41:21;99679.66;;;5.12;100.00
11856;BME280;5987;53.140;8.904;2023-01-09T09:44:55;99690.75;;;5.17;100.00
11856;BME280;5987;53.140;8.904;2023-01-09T09:48:18;99694.22;;;5.16;100.00
11856;BME280;5987;53.140;8.904;2023-01-09T09:52:01;99696.66;;;5.22;100.00
11856;BME280;5987;53.140;8.904;2023-01-09T09:55:16;99691.03;;;5.35;100.00
11856;BME280;5987;53.140;8.904;2023-01-09T09:58:26;99693.44;;;5.41;100.00
11856;BME280;5987;53.140;8.904;2023-01-09T10:01:39;99689.75;;;5.46;100.00
11856;BME280;5987;53.140;8.904;2023-01-09T10:04:51;99690.41;;;5.53;100.00
11856;BME280;5987;53.140;8.904;2023-01-09T10:08:03;99689.00;;;5.43;100.00
11856;BME280;5987;53.140;8.904;2023-01-09T10:11:24;99687.69;;;5.56;100.00
11856;BME280;5987;53.140;8.904;2023-01-09T10:14:30;99687.75;;;5.55;100.00
11856;BME280;5987;53.140;8.904;2023-01-09T10:17:54;99698.88;;;5.58;100.00
11856;BME280;5987;53.140;8.904;2023-01-09T10:21:11;99697.81;;;5.65;100.00
11856;BME280;5987;53.140;8.904;2023-01-09T10:24:51;99688.75;;;5.76;100.00
11856;BME280;5987;53.140;8.904;2023-01-09T10:28:18;99688.75;;;5.76;100.00
11856;BME280;5987;53.140;8.904;2023-01-09T10:31:33;99680.81;;;5.79;100.00
11856;BME280;5987;53.140;8.904;2023-01-09T10:34:58;99679.97;;;5.78;100.00
11856;BME280;5987;53.140;8.904;2023-01-09T10:38:06;99692.06;;;5.79;100.00
11856;BME280;5987;53.140;8.904;2023-01-09T10:41:20;99690.34;;;5.80;100.00
11856;BME280;5987;53.140;8.904;2023-01-09T10:44:32;99687.94;;;5.74;100.00
11856;BME280;5987;53.140;8.904;2023-01-09T10:47:39;99687.03;;;5.75;100.00
11856;BME280;5987;53.140;8.904;2023-01-09T10:50:47;99685.84;;;5.85;100.00
11856;BME280;5987;53.140;8.904;2023-01-09T10:53:55;99691.69;;;5.90;100.00
11856;BME280;5987;53.140;8.904;2023-01-09T10:57:11;99694.09;;;5.96;100.00
11856;BME280;5987;53.140;8.904;2023-01-09T11:00:19;99687.38;;;5.91;100.00
11856;BME280;5987;53.140;8.904;2023-01-09T11:03:27;99688.97;;;5.93;100.00
11856;BME280;5987;53.140;8.904;2023-01-09T11:06:42;99685.41;;;5.97;100.00
11856;BME280;5987;53.140;8.904;2023-01-09T11:10:11;99680.38;;;6.16;100.00
11856;BME280;5987;53.140;8.904;2023-01-09T11:13:20;99683.94;;;6.14;100.00
11856;BME280;5987;53.140;8.904;2023-01-09T11:16:25;99678.84;;;6.11;100.00
11856;BME280;5987;53.140;8.904;2023-01-09T11:19:30;99682.22;;;6.13;100.00
11856;BME280;5987;53.140;8.904;2023-01-09T11:22:43;99674.53;;;6.10;100.00
11856;BME280;5987;53.140;8.904;2023-01-09T11:25:54;99677.81;;;6.15;100.00
11856;BME280;5987;53.140;8.904;2023-01-09T11:29:08;99671.22;;;6.28;100.00
11856;BME280;5987;53.140;8.904;2023-01-09T11:32:21;99674.00;;;6.24;100.00
11856;BME280;5987;53.140;8.904;2023-01-09T11:35:29;99673.13;;;6.25;100.00
11856;BME280;5987;53.140;8.904;2023-01-09T11:38:51;99670.50;;;6.25;100.00
11856;BME280;5987;53.140;8.904;2023-01-09T11:41:59;99670.63;;;6.22;100.00
11856;BME280;5987;53.140;8.904;2023-01-09T11:45:29;99670.91;;;6.14;100.00
11856;BME280;5987;53.140;8.904;2023-01-09T11:48:38;99670.78;;;6.17;100.00
11856;BME280;5987;53.140;8.904;2023-01-09T11:51:43;99669.19;;;6.13;100.00
11856;BME280;5987;53.140;8.904;2023-01-09T11:54:54;99676.44;;;6.05;100.00
11856;BME280;5987;53.140;8.904;2023-01-09T11:58:03;99686.97;;;6.01;100.00
11856;BME280;5987;53.140;8.904;2023-01-09T12:01:32;99677.59;;;5.96;100.00
11856;BME280;5987;53.140;8.904;2023-01-09T12:04:48;99684.50;;;5.98;100.00
11856;BME280;5987;53.140;8.904;2023-01-09T12:08:26;99676.81;;;5.94;100.00
11856;BME280;5987;53.140;8.904;2023-01-09T12:11:41;99678.56;;;5.93;100.00
11856;BME280;5987;53.140;8.904;2023-01-09T12:15:18;99674.38;;;5.89;100.00
11856;BME280;5987;53.140;8.904;2023-01-09T12:18:47;99676.06;;;5.90;100.00
11856;BME280;5987;53.140;8.904;2023-01-09T12:22:03;99672.69;;;5.88;100.00
11856;BME280;5987;53.140;8.904;2023-01-09T12:25:22;99678.97;;;5.82;100.00
11856;BME280;5987;53.140;8.904;2023-01-09T12:32:57;99671.94;;;5.84;100.00
11856;BME280;5987;53.140;8.904;2023-01-09T12:36:16;99684.00;;;5.87;100.00
11856;BME280;5987;53.140;8.904;2023-01-09T12:39:32;99677.91;;;5.88;100.00
11856;BME280;5987;53.140;8.904;2023-01-09T12:42:52;99680.28;;;5.94;100.00
11856;BME280;5987;53.140;8.904;2023-01-09T12:46:13;99674.81;;;6.02;100.00
11856;BME280;5987;53.140;8.904;2023-01-09T12:49:29;99672.75;;;6.10;100.00
11856;BME280;5987;53.140;8.904;2023-01-09T12:52:43;99671.09;;;6.09;100.00
11856;BME280;5987;53.140;8.904;2023-01-09T12:55:57;99679.78;;;6.08;100.00
11856;BME280;5987;53.140;8.904;2023-01-09T12:59:21;99678.50;;;5.95;100.00
11856;BME280;5987;53.140;8.904;2023-01-09T13:02:38;99686.97;;;6.01;100.00
11856;BME280;5987;53.140;8.904;2023-01-09T13:05:49;99690.47;;;6.02;100.00
11856;BME280;5987;53.140;8.904;2023-01-09T13:09:07;99683.41;;;6.04;100.00
11856;BME280;5987;53.140;8.904;2023-01-09T13:12:18;99685.78;;;6.10;100.00
11856;BME280;5987;53.140;8.904;2023-01-09T13:15:29;99681.56;;;6.08;100.00
11856;BME280;5987;53.140;8.904;2023-01-09T13:18:43;99684.88;;;6.11;100.00
11856;BME280;5987;53.140;8.904;2023-01-09T13:21:50;99683.31;;;6.07;100.00
11856;BME280;5987;53.140;8.904;2023-01-09T13:25:28;99685.06;;;6.07;100.00
11856;BME280;5987;53.140;8.904;2023-01-09T13:28:41;99708.19;;;5.91;100.00
11856;BME280;5987;53.140;8.904;2023-01-09T13:35:48;99701.41;;;5.87;100.00
11856;BME280;5987;53.140;8.904;2023-01-09T13:38:55;99705.63;;;5.89;100.00
11856;BME280;5987;53.140;8.904;2023-01-09T13:42:01;99696.28;;;5.83;100.00
11856;BME280;5987;53.140;8.904;2023-01-09T13:45:26;99714.56;;;5.82;100.00
11856;BME280;5987;53.140;8.904;2023-01-09T13:48:40;99705.06;;;5.81;100.00
11856;BME280;5987;53.140;8.904;2023-01-09T13:51:59;99706.75;;;5.82;100.00
11856;BME280;5987;53.140;8.904;2023-01-09T13:55:29;99709.59;;;5.76;100.00
11856;BME280;5987;53.140;8.904;2023-01-09T13:58:59;99712.41;;;5.70;100.00
11856;BME280;5987;53.140;8.904;2023-01-09T14:03:02;99723.84;;;5.65;100.00
11856;BME280;5987;53.140;8.904;2023-01-09T14:06:16;99727.34;;;5.64;100.00
11856;BME280;5987;53.140;8.904;2023-01-09T14:09:21;99729.88;;;5.66;100.00
11856;BME280;5987;53.140;8.904;2023-01-09T14:12:31;99732.66;;;5.61;100.00
11856;BME280;5987;53.140;8.904;2023-01-09T14:15:46;99737.66;;;5.67;100.00
11856;BME280;5987;53.140;8.904;2023-01-09T14:18:55;99741.31;;;5.62;100.00
11856;BME280;5987;53.140;8.904;2023-01-09T14:22:03;99741.31;;;5.62;100.00
11856;BME280;5987;53.140;8.904;2023-01-09T14:25:13;99747.41;;;5.61;100.00
11856;BME280;5987;53.140;8.904;2023-01-09T14:28:23;99753.56;;;5.58;100.00
11856;BME280;5987;53.140;8.904;2023-01-09T14:31:30;99760.50;;;5.59;100.00
11856;BME280;5987;53.140;8.904;2023-01-09T14:34:36;99763.97;;;5.58;100.00
11856;BME280;5987;53.140;8.904;2023-01-09T14:37:45;99782.47;;;5.50;100.00
11856;BME280;5987;53.140;8.904;2023-01-09T14:40:59;99785.25;;;5.46;100.00
11856;BME280;5987;53.140;8.904;2023-01-09T14:44:18;99795.50;;;5.50;100.00
11856;BME280;5987;53.140;8.904;2023-01-09T14:47:42;99795.94;;;5.37;100.00
11856;BME280;5987;53.140;8.904;2023-01-09T14:50:51;99806.47;;;5.33;100.00
11856;BME280;5987;53.140;8.904;2023-01-09T14:53:58;99808.06;;;5.38;100.00
11856;BME280;5987;53.140;8.904;2023-01-09T14:57:23;99818.53;;;5.36;100.00
11856;BME280;5987;53.140;8.904;2023-01-09T15:00:29;99827.06;;;5.40;100.00
11856;BME280;5987;53.140;8.904;2023-01-09T15:03:39;99834.19;;;5.35;100.00
11856;BME280;5987;53.140;8.904;2023-01-09T15:06:45;99848.09;;;5.33;100.00
11856;BME280;5987;53.140;8.904;2023-01-09T15:09:49;99861.00;;;5.37;100.00
11856;BME280;5987;53.140;8.904;2023-01-09T15:12:56;99861.84;;;5.37;100.00
11856;BME280;5987;53.140;8.904;2023-01-09T15:16:06;99867.16;;;5.34;100.00
11856;BME280;5987;53.140;8.904;2023-01-09T15:19:19;99877.53;;;5.36;100.00
11856;BME280;5987;53.140;8.904;2023-01-09T15:22:27;99882.84;;;5.32;100.00
11856;BME280;5987;53.140;8.904;2023-01-09T15:25:33;99893.34;;;5.29;100.00
11856;BME280;5987;53.140;8.904;2023-01-09T15:28:52;99890.84;;;5.26;100.00
11856;BME280;5987;53.140;8.904;2023-01-09T15:32:02;99891.69;;;5.27;100.00
11856;BME280;5987;53.140;8.904;2023-01-09T15:35:12;99901.31;;;5.25;100.00
11856;BME280;5987;53.140;8.904;2023-01-09T15:38:22;99900.34;;;5.27;100.00
11856;BME280;5987;53.140;8.904;2023-01-09T15:41:29;99900.34;;;5.27;100.00
11856;BME280;5987;53.140;8.904;2023-01-09T15:44:52;99908.19;;;5.26;100.00
11856;BME280;5987;53.140;8.904;2023-01-09T15:48:19;99919.47;;;5.26;100.00
11856;BME280;5987;53.140;8.904;2023-01-09T15:51:25;99922.16;;;5.23;100.00
11856;BME280;5987;53.140;8.904;2023-01-09T15:54:31;99924.94;;;5.17;100.00
11856;BME280;5987;53.140;8.904;2023-01-09T15:57:37;99931.13;;;5.13;100.00
11856;BME280;5987;53.140;8.904;2023-01-09T16:00:44;99931.06;;;5.14;100.00
11856;BME280;5987;53.140;8.904;2023-01-09T16:04:03;99941.53;;;5.13;100.00
11856;BME280;5987;53.140;8.904;2023-01-09T16:07:14;99947.72;;;5.09;100.00
11856;BME280;5987;53.140;8.904;2023-01-09T16:10:22;99955.63;;;5.06;100.00
11856;BME280;5987;53.140;8.904;2023-01-09T16:13:30;99971.13;;;5.09;100.00
11856;BME280;5987;53.140;8.904;2023-01-09T16:16:37;99979.03;;;5.06;100.00
11856;BME280;5987;53.140;8.904;2023-01-09T16:19:47;99985.06;;;5.06;100.00
11856;BME280;5987;53.140;8.904;2023-01-09T16:22:54;99992.91;;;5.05;100.00
11856;BME280;5987;53.140;8.904;2023-01-09T16:26:09;99987.81;;;5.02;100.00
11856;BME280;5987;53.140;8.904;2023-01-09T16:29:33;99994.81;;;5.00;100.00
11856;BME280;5987;53.140;8.904;2023-01-09T16:32:47;99999.19;;;4.97;100.00
11856;BME280;5987;53.140;8.904;2023-01-09T16:35:54;100005.31;;;4.96;100.00
11856;BME280;5987;53.140;8.904;2023-01-09T16:39:00;100014.75;;;4.99;100.00
11856;BME280;5987;53.140;8.904;2023-01-09T16:42:08;100015.59;;;5.01;100.00
11856;BME280;5987;53.140;8.904;2023-01-09T16:45:33;100015.53;;;5.03;100.00
11856;BME280;5987;53.140;8.904;2023-01-09T16:48:39;100019.81;;;5.05;100.00
11856;BME280;5987;53.140;8.904;2023-01-09T16:51:43;100028.31;;;5.10;100.00
11856;BME280;5987;53.140;8.904;2023-01-09T16:54:47;100034.34;;;5.12;100.00
11856;BME280;5987;53.140;8.904;2023-01-09T16:57:51;100044.72;;;5.14;100.00
11856;BME280;5987;53.140;8.904;2023-01-09T17:00:55;100046.47;;;5.13;100.00
11856;BME280;5987;53.140;8.904;2023-01-09T17:04:00;100050.81;;;5.13;100.00
11856;BME280;5987;53.140;8.904;2023-01-09T17:07:04;100062.13;;;5.12;100.00
11856;BME280;5987;53.140;8.904;2023-01-09T17:10:19;100064.78;;;5.09;100.00